Terminal Aerodrome Forecast
Issued by NWS Blacksburg, VA

Current Version | Previous Version | Graphics & Text | Print | Product List | Glossary On
Versions: 1 2 3 4 5 6 7 8 9 10 11 12 13 14 15 16 17 18 19 20 21 22 23 24 25 26 27 28 29 30 31 32 33 34 35 36 37 38 39 40 41 42 43 44 45 46
966
FTUS41 KRNK 200030 AAB
TAFBLF
TAF AMD
KBLF 200030Z 2001/2024 32006KT P6SM SCT020
     FM200500 30004KT P6SM BKN015
     FM200700 29004KT 4SM BR BKN010
     FM200900 VRB03KT 2SM BR BKN008
      TEMPO 2010/2012 1/4SM FG OVC001
     FM201300 00000KT P6SM SCT025=

USA.gov is the U.S. government's official web portal to all federal, state and local government web resources and services.